Time;durP1;ratioP1;P1;durP2;ratioP2;P2;SDS_P1;SDS_P2;PMS_P1;PMS_P2;Temp;Humidity;BMP_temperature;BMP_pressure;BME280_temperature;BME280_humidity;BME280_pressure;Samples;Min_cycle;Max_cycle;Signal;HPM_P1;HPM_P2
2022/05/19 00:01:08;;;;;;;22.30;9.65;;;16.20;99.90;;;;;;4999256;28;20045;-75
2022/05/19 00:03:36;;;;;;;;;;;16.20;99.90;;;;;;5016801;28;20046;-75
2022/05/19 00:06:06;;;;;;;28.08;10.63;;;16.20;99.90;;;;;;5015319;28;19921;-75
2022/05/19 00:08:35;;;;;;;26.73;11.00;;;;;;;;;;5016290;28;20049;-75
2022/05/19 00:11:02;;;;;;;;;;;;;;;;;;5015839;28;20050;-75
2022/05/19 00:13:31;;;;;;;27.02;11.05;;;;;;;;;;5016398;28;19925;-75
2022/05/19 00:15:59;;;;;;;24.10;10.82;;;16.10;99.90;;;;;;5016224;28;20057;-76
2022/05/19 00:18:26;;;;;;;;;;;16.20;99.90;;;;;;5015901;28;20381;-75
2022/05/19 00:20:54;;;;;;;24.15;11.50;;;;;;;;;;5016406;28;19922;-76
2022/05/19 00:23:22;;;;;;;22.98;11.68;;;16.10;99.90;;;;;;4998972;28;20368;-75
2022/05/19 00:25:49;;;;;;;24.70;12.00;;;16.10;99.90;;;;;;5014919;28;20046;-75
2022/05/19 00:28:17;;;;;;;22.40;11.40;;;;;;;;;;5016009;28;20453;-76
2022/05/19 00:30:45;;;;;;;28.83;11.95;;;16.10;99.90;;;;;;5015903;28;20056;-75
2022/05/19 00:33:13;;;;;;;27.15;12.82;;;16.10;99.90;;;;;;5013930;28;20052;-76
2022/05/19 00:35:41;;;;;;;40.95;14.95;;;16.10;99.90;;;;;;4998532;28;20392;-76
2022/05/19 00:38:09;;;;;;;44.15;15.80;;;16.20;99.90;;;;;;5014675;28;20042;-76
2022/05/19 00:40:37;;;;;;;37.80;14.65;;;16.20;99.90;;;;;;5015842;28;20046;-76
2022/05/19 00:43:05;;;;;;;32.97;14.43;;;16.20;99.90;;;;;;5015574;28;20038;-76
2022/05/19 00:46:04;;;;;;;49.88;17.13;;;16.20;99.90;;;;;;5014653;28;20046;-76
2022/05/19 00:48:53;;;;;;;40.22;15.85;;;16.20;99.90;;;;;;5015690;28;20042;-75
2022/05/19 00:51:41;;;;;;;27.65;12.52;;;16.20;99.90;;;;;;5014869;28;20042;-76
2022/05/19 00:54:14;;;;;;;30.38;12.25;;;16.30;99.90;;;;;;5015850;28;20042;-76
2022/05/19 00:56:49;;;;;;;34.05;12.82;;;16.20;99.90;;;;;;4998540;28;20057;-76
2022/05/19 00:59:31;;;;;;;37.83;13.00;;;16.30;99.90;;;;;;5013405;28;20129;-76
2022/05/19 01:02:00;;;;;;;32.70;13.20;;;16.30;99.90;;;;;;5015790;28;20396;-76
2022/05/19 01:04:31;;;;;;;;;;;16.30;99.90;;;;;;5014754;28;20046;-76
2022/05/19 01:07:05;;;;;;;34.67;13.93;;;16.20;99.90;;;;;;5015645;28;19929;-76
2022/05/19 01:09:35;;;;;;;32.13;14.27;;;16.20;99.90;;;;;;4998310;28;20041;-76
2022/05/19 01:12:04;;;;;;;33.88;15.18;;;16.30;99.90;;;;;;5013624;28;20465;-76
2022/05/19 01:14:33;;;;;;;30.30;13.38;;;16.20;99.90;;;;;;5015135;28;20073;-76
2022/05/19 01:17:04;;;;;;;33.97;12.25;;;16.30;99.90;;;;;;5015138;28;20042;-76
2022/05/19 01:19:40;;;;;;;0.38;0.38;;;16.20;99.90;;;;;;5014162;28;20049;-76
2022/05/19 01:22:37;;;;;;;0.00;0.00;;;16.20;99.90;;;;;;5014971;28;20042;-76
2022/05/19 01:25:42;;;;;;;0.00;0.00;;;16.20;99.90;;;;;;4997211;28;20049;-76
2022/05/19 01:28:10;;;;;;;0.00;0.00;;;16.20;99.90;;;;;;5015244;28;20049;-76
2022/05/19 01:30:38;;;;;;;0.00;0.00;;;16.20;99.90;;;;;;5014930;28;20377;-76
2022/05/19 01:33:06;;;;;;;0.00;0.00;;;16.20;99.90;;;;;;5013985;28;20038;-79
2022/05/19 01:35:34;;;;;;;0.00;0.00;;;16.00;99.90;;;;;;5014895;28;20061;-82
2022/05/19 01:38:07;;;;;;;0.00;0.00;;;16.00;99.90;;;;;;5014200;28;20473;-80
2022/05/19 01:40:51;;;;;;;0.00;0.00;;;15.90;99.90;;;;;;4997883;28;20044;-81
2022/05/19 01:43:25;;;;;;;0.00;0.00;;;15.90;99.90;;;;;;5014490;28;20718;-82
2022/05/19 01:46:10;;;;;;;0.00;0.00;;;15.90;99.90;;;;;;5014025;28;20042;-81
2022/05/19 01:48:56;;;;;;;0.00;0.00;;;15.90;99.90;;;;;;4982028;28;20049;-80
2022/05/19 01:51:37;;;;;;;0.00;0.00;;;15.90;99.90;;;;;;5013883;28;20054;-79
2022/05/19 01:54:10;;;;;;;0.00;0.00;;;15.90;99.90;;;;;;5014259;28;20061;-80
2022/05/19 01:56:59;;;;;;;0.00;0.00;;;15.90;99.90;;;;;;5015052;28;20061;-80
2022/05/19 02:00:04;;;;;;;0.00;0.00;;;15.90;99.90;;;;;;5013764;28;20049;-79
2022/05/19 02:03:13;;;;;;;0.00;0.00;;;15.90;99.90;;;;;;5014770;28;20046;-81
2022/05/19 02:05:49;;;;;;;0.00;0.00;;;15.90;99.90;;;;;;5013769;28;20059;-80
2022/05/19 02:08:37;;;;;;;0.00;0.00;;;16.00;99.90;;;;;;5014646;28;20053;-81
2022/05/19 02:11:10;;;;;;;0.00;0.00;;;16.00;99.90;;;;;;4996477;28;20045;-82
2022/05/19 02:13:38;;;;;;;0.00;0.00;;;16.10;99.90;;;;;;5014878;28;20049;-81
2022/05/19 02:16:08;;;;;;;0.00;0.00;;;16.10;99.90;;;;;;5014541;28;20057;-79
2022/05/19 02:18:37;;;;;;;0.00;0.00;;;16.00;99.90;;;;;;5013728;28;20042;-81
2022/05/19 02:21:07;;;;;;;0.00;0.00;;;16.00;99.90;;;;;;4997586;28;20053;-80
2022/05/19 02:23:35;;;;;;;0.00;0.00;;;16.00;99.90;;;;;;5014730;28;20046;-79
2022/05/19 02:26:03;;;;;;;0.00;0.00;;;16.00;99.90;;;;;;4996511;28;20372;-82
2022/05/19 02:28:46;;;;;;;0.00;0.00;;;15.90;99.90;;;;;;5014487;28;20049;-81
2022/05/19 02:31:16;;;;;;;0.00;0.00;;;15.90;99.90;;;;;;5013343;28;20057;-82
2022/05/19 02:33:43;;;;;;;0.00;0.00;;;15.80;99.90;;;;;;4997186;28;20046;-80
2022/05/19 02:36:11;;;;;;;0.00;0.00;;;15.80;99.90;;;;;;5014412;28;20041;-82
2022/05/19 02:38:39;;;;;;;0.00;0.00;;;15.80;99.90;;;;;;4996712;28;20042;-82
2022/05/19 02:41:07;;;;;;;0.00;0.00;;;15.80;99.90;;;;;;5014528;28;20053;-80
2022/05/19 02:43:34;;;;;;;0.00;0.00;;;15.70;99.90;;;;;;5014226;28;20042;-79
2022/05/19 02:46:02;;;;;;;0.00;0.00;;;15.70;99.90;;;;;;5013264;28;20042;-82
2022/05/19 02:48:32;;;;;;;0.00;0.00;;;15.70;99.90;;;;;;5014383;28;20061;-81
2022/05/19 02:51:00;;;;;;;0.00;0.00;;;15.70;99.90;;;;;;5013226;28;20504;-81
2022/05/19 02:53:28;;;;;;;0.00;0.00;;;15.60;99.90;;;;;;5014624;28;20056;-81
2022/05/19 02:55:58;;;;;;;0.00;0.00;;;15.60;99.90;;;;;;5015337;28;20058;-82
2022/05/19 02:58:26;;;;;;;0.00;0.00;;;15.60;99.90;;;;;;5016683;28;20053;-82
2022/05/19 03:00:53;;;;;;;0.00;0.00;;;15.60;99.90;;;;;;5017772;28;20049;-80
2022/05/19 03:03:21;;;;;;;0.00;0.00;;;15.60;99.90;;;;;;5000867;28;20042;-80
2022/05/19 03:05:49;;;;;;;;;;;15.60;99.90;;;;;;5017239;28;20049;-82
2022/05/19 03:08:18;;;;;;;0.00;0.00;;;15.50;99.90;;;;;;5000632;28;19921;-80
2022/05/19 03:10:45;;;;;;;0.00;0.00;;;15.50;99.90;;;;;;5000983;28;20064;-79
2022/05/19 03:13:23;;;;;;;0.00;0.00;;;15.50;99.90;;;;;;5016393;28;20052;-80
2022/05/19 03:15:51;;;;;;;0.00;0.00;;;15.50;99.90;;;;;;5017670;28;20416;-79
2022/05/19 03:18:18;;;;;;;0.00;0.00;;;15.50;99.90;;;;;;5016455;28;20053;-80
2022/05/19 03:20:46;;;;;;;0.00;0.00;;;15.40;99.90;;;;;;5017389;28;20477;-81
2022/05/19 03:23:14;;;;;;;0.00;0.00;;;15.40;99.90;;;;;;5017369;28;20045;-79
2022/05/19 03:25:41;;;;;;;0.00;0.00;;;15.40;99.90;;;;;;5016395;28;20042;-82
2022/05/19 03:28:13;;;;;;;0.00;0.00;;;15.30;99.90;;;;;;5017585;28;20496;-82
2022/05/19 03:30:41;;;;;;;0.00;0.00;;;15.30;99.90;;;;;;5017252;28;20403;-80
2022/05/19 03:33:09;;;;;;;0.00;0.00;;;15.30;99.90;;;;;;5016233;28;20053;-80
2022/05/19 03:35:36;;;;;;;0.00;0.00;;;15.30;99.90;;;;;;5015946;28;20397;-81
2022/05/19 03:38:04;;;;;;;0.00;0.00;;;15.30;99.90;;;;;;5016583;28;20396;-82
2022/05/19 03:40:32;;;;;;;0.00;0.00;;;15.30;99.90;;;;;;5017359;28;20384;-80
2022/05/19 03:42:59;;;;;;;0.00;0.00;;;15.40;99.90;;;;;;4999901;28;20046;-82
2022/05/19 03:45:27;;;;;;;0.00;0.00;;;15.40;99.90;;;;;;5016037;28;20393;-81
2022/05/19 03:47:55;;;;;;;0.00;0.00;;;15.50;99.90;;;;;;5016993;28;20045;-82
2022/05/19 03:50:23;;;;;;;;;;;15.60;99.90;;;;;;5017575;28;20045;-79
2022/05/19 03:52:53;;;;;;;0.00;0.00;;;15.70;99.90;;;;;;5015866;28;19921;-82
2022/05/19 03:55:23;;;;;;;0.00;0.00;;;15.70;99.90;;;;;;5016860;28;20053;-82
2022/05/19 03:57:50;;;;;;;0.00;0.00;;;15.80;99.90;;;;;;5015740;28;20198;-82
2022/05/19 04:00:18;;;;;;;0.00;0.00;;;15.80;99.90;;;;;;5016499;28;20050;-80
2022/05/19 04:02:46;;;;;;;0.00;0.00;;;15.90;99.90;;;;;;5016629;28;20049;-81
2022/05/19 04:05:14;;;;;;;0.00;0.00;;;15.90;99.90;;;;;;5015534;28;20057;-81
2022/05/19 04:07:42;;;;;;;;;;;15.90;99.90;;;;;;5016801;28;20038;-82
2022/05/19 04:10:11;;;;;;;0.00;0.00;;;15.90;99.90;;;;;;5016572;28;19921;-80
2022/05/19 04:12:39;;;;;;;0.00;0.00;;;15.90;99.90;;;;;;5015488;28;20057;-81
2022/05/19 04:15:07;;;;;;;0.00;0.00;;;16.00;99.90;;;;;;4983157;28;20037;-82
2022/05/19 04:17:35;;;;;;;0.00;0.00;;;16.00;99.90;;;;;;4997834;28;20064;-82
2022/05/19 04:20:07;;;;;;;0.00;0.00;;;16.00;99.90;;;;;;5016095;28;20057;-82
2022/05/19 04:22:35;;;;;;;0.00;0.00;;;16.10;99.90;;;;;;4999005;28;20057;-82
2022/05/19 04:25:05;;;;;;;0.00;0.00;;;16.10;99.90;;;;;;5014846;28;20045;-80
2022/05/19 04:27:33;;;;;;;0.00;0.00;;;16.00;99.90;;;;;;5016103;28;20046;-80
2022/05/19 04:30:05;;;;;;;0.00;0.00;;;16.00;99.90;;;;;;4999009;28;20056;-79
2022/05/19 04:32:39;;;;;;;0.57;0.57;;;15.90;99.90;;;;;;5015009;28;20046;-82
2022/05/19 04:35:07;;;;;;;0.00;0.00;;;15.90;99.90;;;;;;5016087;28;20054;-80
2022/05/19 04:37:34;;;;;;;0.00;0.00;;;15.90;99.90;;;;;;4997582;28;20045;-80
2022/05/19 04:40:05;;;;;;;0.00;0.00;;;15.90;99.90;;;;;;5015773;28;20050;-80
2022/05/19 04:42:34;;;;;;;0.00;0.00;;;15.90;99.90;;;;;;5015695;28;20449;-82
2022/05/19 04:45:02;;;;;;;0.00;0.00;;;16.00;99.90;;;;;;5014675;28;20046;-81
2022/05/19 04:47:33;;;;;;;0.15;0.15;;;16.00;99.90;;;;;;5016067;28;20057;-81
2022/05/19 04:50:00;;;;;;;0.00;0.00;;;16.00;99.90;;;;;;5015824;28;20046;-81
2022/05/19 04:52:28;;;;;;;0.00;0.00;;;16.00;99.90;;;;;;5014764;28;20046;-81
2022/05/19 04:54:56;;;;;;;0.00;0.00;;;16.10;99.90;;;;;;5015481;28;20046;-81
2022/05/19 04:57:23;;;;;;;0.00;0.00;;;16.10;99.90;;;;;;5015709;28;20046;-80
2022/05/19 04:59:51;;;;;;;0.03;0.03;;;16.10;99.90;;;;;;5014444;28;20057;-81
2022/05/19 05:02:18;;;;;;;0.00;0.00;;;16.10;99.90;;;;;;5015762;28;20049;-82
2022/05/19 05:04:46;;;;;;;0.00;0.00;;;16.10;99.90;;;;;;5014502;28;20050;-82
2022/05/19 05:07:13;;;;;;;0.00;0.00;;;16.00;99.90;;;;;;4982021;28;20050;-82
2022/05/19 05:09:41;;;;;;;0.00;0.00;;;16.00;99.90;;;;;;4998330;28;20046;-81
2022/05/19 05:12:09;;;;;;;0.00;0.00;;;16.00;99.90;;;;;;5014467;28;20049;-82
2022/05/19 05:14:37;;;;;;;0.00;0.00;;;16.00;99.90;;;;;;5015357;28;20053;-81
2022/05/19 05:17:05;;;;;;;0.00;0.00;;;16.00;99.90;;;;;;5015665;28;20125;-81
2022/05/19 05:19:32;;;;;;;0.00;0.00;;;16.00;99.90;;;;;;4996217;28;20061;-81
2022/05/19 05:22:00;;;;;;;0.00;0.00;;;16.00;99.90;;;;;;4998401;28;20057;-81
2022/05/19 05:24:28;;;;;;;0.00;0.00;;;16.00;99.90;;;;;;5014007;28;20373;-80
2022/05/19 05:26:56;;;;;;;0.00;0.00;;;16.00;99.90;;;;;;5015045;28;20049;-81
2022/05/19 05:29:25;;;;;;;0.00;0.00;;;16.00;99.90;;;;;;4998045;28;20049;-82
2022/05/19 05:31:53;;;;;;;0.00;0.00;;;16.10;99.90;;;;;;5014060;28;20488;-82
2022/05/19 05:34:20;;;;;;;0.00;0.00;;;16.10;99.90;;;;;;4997803;28;20049;-81
2022/05/19 05:36:48;;;;;;;0.00;0.00;;;16.00;99.90;;;;;;4998001;28;20068;-80
2022/05/19 05:39:16;;;;;;;0.00;0.00;;;16.00;99.90;;;;;;4997104;28;20065;-80
2022/05/19 05:41:44;;;;;;;0.00;0.00;;;16.00;99.90;;;;;;5015332;28;20049;-80
2022/05/19 05:44:12;;;;;;;0.00;0.00;;;16.00;99.90;;;;;;4981110;28;20057;-82
2022/05/19 05:46:42;;;;;;;0.00;0.00;;;16.00;99.90;;;;;;5013909;28;20077;-80
2022/05/19 05:49:11;;;;;;;0.00;0.00;;;16.10;99.90;;;;;;5015142;28;20050;-82
2022/05/19 05:51:39;;;;;;;0.00;0.00;;;16.10;99.90;;;;;;5013848;28;20053;-82
2022/05/19 05:54:06;;;;;;;0.00;0.00;;;16.10;99.90;;;;;;5013949;28;20053;-82
2022/05/19 05:56:34;;;;;;;0.00;0.00;;;16.20;99.90;;;;;;4997840;28;20046;-82
2022/05/19 05:59:01;;;;;;;0.00;0.00;;;16.20;99.90;;;;;;5013719;28;20054;-81
2022/05/19 06:01:29;;;;;;;0.00;0.00;;;16.20;99.90;;;;;;5014663;28;20072;-80
2022/05/19 06:03:57;;;;;;;6.22;0.40;;;16.20;99.90;;;;;;4997329;28;20405;-80
2022/05/19 06:06:25;;;;;;;0.00;0.00;;;16.20;99.90;;;;;;5013532;28;20060;-82
2022/05/19 06:08:52;;;;;;;1.10;0.75;;;16.10;99.90;;;;;;5014968;28;20046;-80
2022/05/19 06:11:20;;;;;;;0.15;0.15;;;16.10;99.90;;;;;;5013763;28;20049;-82
2022/05/19 06:13:50;;;;;;;0.00;0.00;;;16.10;99.90;;;;;;5014845;28;20054;-80
2022/05/19 06:16:18;;;;;;;0.00;0.00;;;16.20;99.90;;;;;;4997559;28;20365;-81
2022/05/19 06:18:46;;;;;;;;;;;16.20;99.90;;;;;;5013550;28;20068;-82
2022/05/19 06:21:13;;;;;;;0.00;0.00;;;16.20;99.90;;;;;;5014576;28;19921;-80
2022/05/19 06:23:41;;;;;;;0.00;0.00;;;16.20;99.90;;;;;;5014653;28;20456;-80
2022/05/19 06:26:08;;;;;;;0.20;0.20;;;16.20;99.90;;;;;;5013717;28;20513;-80
2022/05/19 06:28:36;;;;;;;0.00;0.00;;;16.30;99.90;;;;;;5014604;28;20491;-82
2022/05/19 06:31:04;;;;;;;0.00;0.00;;;16.20;99.90;;;;;;5015916;28;20504;-82
2022/05/19 06:33:35;;;;;;;0.00;0.00;;;16.30;99.90;;;;;;5018085;28;20049;-81
2022/05/19 06:36:04;;;;;;;2.10;0.57;;;16.20;99.90;;;;;;5018084;28;20053;-80
2022/05/19 06:38:32;;;;;;;0.00;0.00;;;16.20;99.90;;;;;;5017088;28;20054;-80
2022/05/19 06:43:47;;;;;;;0.00;0.00;;;16.00;99.90;;;;;;5000363;28;20046;-81
2022/05/19 06:46:15;;;;;;;0.00;0.00;;;16.00;99.90;;;;;;5016826;28;20049;-81
2022/05/19 06:48:43;;;;;;;0.00;0.00;;;16.00;99.90;;;;;;5018168;28;20052;-81
2022/05/19 06:51:11;;;;;;;0.00;0.00;;;16.00;99.90;;;;;;4999679;28;20348;-81
2022/05/19 06:53:51;;;;;;;;;;;16.00;99.90;;;;;;5002808;28;20365;-81
2022/05/19 06:56:18;;;;;;;0.00;0.00;;;15.90;99.90;;;;;;5017824;28;19921;-81
2022/05/19 06:58:46;;;;;;;0.00;0.00;;;15.90;99.90;;;;;;5016904;28;20041;-81
2022/05/19 07:01:14;;;;;;;0.00;0.00;;;15.90;99.90;;;;;;5000656;28;20385;-81
2022/05/19 07:03:41;;;;;;;0.00;0.00;;;15.90;99.90;;;;;;5017572;28;20465;-81
2022/05/19 07:06:09;;;;;;;0.00;0.00;;;15.90;99.90;;;;;;5015823;28;20042;-81
2022/05/19 07:08:39;;;;;;;0.00;0.00;;;15.80;99.90;;;;;;5016736;28;20362;-81
2022/05/19 07:11:24;;;;;;;0.00;0.00;;;15.80;99.90;;;;;;5016198;28;20046;-83
2022/05/19 07:14:02;;;;;;;0.00;0.00;;;15.80;99.90;;;;;;5000143;28;20144;-82
2022/05/19 07:16:33;;;;;;;0.00;0.00;;;15.80;99.90;;;;;;5017142;28;20483;-82
2022/05/19 07:21:48;;;;;;;0.00;0.00;;;15.70;99.90;;;;;;5016972;28;20049;-82
2022/05/19 07:24:17;;;;;;;;;;;15.80;99.90;;;;;;5016317;28;20049;-82
2022/05/19 07:26:48;;;;;;;0.00;0.00;;;15.80;99.90;;;;;;5016941;28;19928;-82
2022/05/19 07:29:16;;;;;;;0.00;0.00;;;15.30;99.90;;;;;;5017007;28;20372;-78
2022/05/19 07:31:46;;;;;;;0.00;0.00;;;15.30;99.90;;;;;;5016163;28;20049;-79
2022/05/19 07:34:16;;;;;;;0.00;0.00;;;15.30;99.90;;;;;;5017058;28;20046;-82
2022/05/19 07:36:44;;;;;;;0.00;0.00;;;15.30;99.90;;;;;;5015864;28;20412;-82
2022/05/19 07:39:12;;;;;;;0.00;0.00;;;15.30;99.90;;;;;;4998709;28;20491;-82
2022/05/19 07:41:40;;;;;;;0.00;0.00;;;15.30;99.90;;;;;;5016126;28;20050;-82
2022/05/19 07:44:08;;;;;;;0.00;0.00;;;15.30;99.90;;;;;;4999529;28;20045;-82
2022/05/19 07:46:36;;;;;;;0.00;0.00;;;15.40;99.90;;;;;;4998523;28;20469;-81
2022/05/19 07:49:04;;;;;;;0.00;0.00;;;15.30;99.90;;;;;;5016524;28;20365;-80
2022/05/19 07:51:37;;;;;;;0.00;0.00;;;15.40;99.90;;;;;;4991907;28;20054;-78
2022/05/19 07:54:10;;;;;;;0.00;0.00;;;15.40;99.90;;;;;;4998206;28;20065;-80
2022/05/19 07:56:42;;;;;;;0.00;0.00;;;15.60;99.90;;;;;;5016688;28;20065;-81
2022/05/19 07:59:11;;;;;;;0.00;0.00;;;15.70;99.90;;;;;;4999079;28;20045;-81
2022/05/19 08:01:40;;;;;;;0.00;0.00;;;15.80;99.90;;;;;;4999786;28;20057;-81
2022/05/19 08:04:09;;;;;;;0.00;0.00;;;15.90;99.90;;;;;;5017077;28;20057;-81
2022/05/19 08:06:38;;;;;;;0.00;0.00;;;16.00;99.90;;;;;;4982715;28;20061;-81
2022/05/19 08:11:54;;;;;;;0.00;0.00;;;16.30;99.90;;;;;;5014580;28;20046;-81
2022/05/19 08:17:30;;;;;;;0.00;0.00;;;16.30;99.90;;;;;;5017051;28;20054;-81
2022/05/19 08:20:00;;;;;;;0.00;0.00;;;16.30;99.90;;;;;;5016605;28;20049;-81
2022/05/19 08:22:28;;;;;;;0.00;0.00;;;16.30;99.90;;;;;;5016807;28;20061;-81
2022/05/19 08:24:58;;;;;;;0.00;0.00;;;16.20;99.90;;;;;;5015833;28;20057;-82
2022/05/19 08:27:26;;;;;;;0.00;0.00;;;16.20;99.90;;;;;;5015338;28;20049;-80
2022/05/19 08:29:53;;;;;;;0.00;0.00;;;16.20;99.90;;;;;;5015975;28;20338;-81
2022/05/19 08:32:21;;;;;;;0.00;0.00;;;16.20;99.90;;;;;;4998776;28;20046;-80
2022/05/19 08:34:49;;;;;;;0.00;0.00;;;17.60;99.90;;;;;;5014680;28;20473;-69
2022/05/19 08:37:20;;;;;;;0.00;0.00;;;17.90;99.90;;;;;;5015842;28;20038;-75
2022/05/19 08:39:48;;;;;;;0.00;0.00;;;18.80;99.90;;;;;;5014932;28;20477;-72
2022/05/19 08:42:16;;;;;;;0.00;0.00;;;18.80;99.90;;;;;;5016148;28;20461;-73
2022/05/19 08:44:52;;;;;;;0.00;0.00;;;18.90;99.90;;;;;;5014544;28;20046;-73
2022/05/19 08:47:24;;;;;;;0.10;0.10;;;18.70;99.90;;;;;;4982749;28;20041;-75
2022/05/19 08:50:26;;;;;;;0.00;0.00;;;18.70;99.90;;;;;;5015222;28;20050;-72
2022/05/19 08:52:54;;;;;;;0.00;0.00;;;18.50;99.90;;;;;;5012932;28;20045;-75
2022/05/19 08:55:22;;;;;;;0.00;0.00;;;18.60;99.90;;;;;;5015603;28;20056;-74
2022/05/19 08:58:37;;;;;;;0.00;0.00;;;18.60;99.90;;;;;;4997493;28;20041;-76
2022/05/19 09:01:24;;;;;;;0.00;0.00;;;18.70;99.90;;;;;;4985972;28;20056;-75
2022/05/19 09:04:08;;;;;;;0.00;0.00;;;18.90;99.90;;;;;;5015873;28;20054;-77
2022/05/19 09:10:17;;;;;;;0.00;0.00;;;19.40;99.90;;;;;;5015205;28;20045;-76
2022/05/19 09:12:50;;;;;;;0.00;0.00;;;19.70;99.90;;;;;;5013474;28;20050;-75
2022/05/19 09:15:17;;;;;;;0.00;0.00;;;19.70;99.90;;;;;;5015205;28;20061;-75
2022/05/19 09:17:46;;;;;;;0.00;0.00;;;20.00;99.90;;;;;;5014112;28;20052;-76
2022/05/19 09:20:22;;;;;;;0.00;0.00;;;20.20;99.90;;;;;;5015087;28;20049;-73
2022/05/19 09:22:49;;;;;;;0.30;0.30;;;20.40;99.90;;;;;;4997107;28;20061;-74
2022/05/19 09:25:21;;;;;;;0.15;0.15;;;20.40;99.90;;;;;;5014008;28;20046;-73
2022/05/19 09:27:51;;;;;;;0.00;0.00;;;20.20;99.90;;;;;;5015100;28;20468;-74
2022/05/19 09:30:38;;;;;;;0.00;0.00;;;19.90;99.90;;;;;;5015164;28;20046;-75
2022/05/19 09:33:15;;;;;;;1.10;0.52;;;19.80;99.90;;;;;;5013718;28;20472;-73
2022/05/19 09:35:55;;;;;;;0.00;0.00;;;19.70;99.90;;;;;;5014850;28;20464;-73
2022/05/19 09:38:47;;;;;;;0.00;0.00;;;19.70;99.90;;;;;;5014598;28;20050;-75
2022/05/19 09:41:23;;;;;;;0.00;0.00;;;19.70;99.90;;;;;;5015138;28;20045;-75
2022/05/19 09:43:55;;;;;;;0.00;0.00;;;19.60;99.90;;;;;;5015059;28;20049;-74
2022/05/19 09:46:30;;;;;;;0.00;0.00;;;20.00;99.90;;;;;;5013916;28;20045;-77
2022/05/19 09:49:01;;;;;;;0.10;0.10;;;20.00;99.90;;;;;;5014846;28;20049;-75
2022/05/19 09:51:42;;;;;;;0.20;0.20;;;20.00;99.90;;;;;;5014026;28;20050;-72
2022/05/19 09:54:12;;;;;;;0.00;0.00;;;19.70;99.90;;;;;;5015003;28;20046;-76
2022/05/19 09:56:51;;;;;;;0.00;0.00;;;19.70;99.90;;;;;;5015048;28;20057;-74
2022/05/19 09:59:58;;;;;;;0.00;0.00;;;19.70;99.90;;;;;;5013699;28;20049;-76
2022/05/19 10:02:34;;;;;;;0.00;0.00;;;20.40;99.90;;;;;;4984222;28;20365;-72
2022/05/19 10:05:46;;;;;;;0.00;0.00;;;20.70;99.90;;;;;;5015652;28;20357;-74
2022/05/19 10:08:42;;;;;;;0.00;0.00;;;20.60;99.90;;;;;;5018555;28;20045;-74
2022/05/19 10:11:18;;;;;;;0.00;0.00;;;20.70;99.90;;;;;;5012232;28;20346;-74
2022/05/19 10:14:02;;;;;;;0.00;0.00;;;20.70;99.90;;;;;;5018668;28;20042;-76
2022/05/19 10:16:55;;;;;;;0.20;0.20;;;20.80;99.90;;;;;;5019028;28;20049;-75
2022/05/19 10:20:06;;;;;;;0.10;0.10;;;20.60;99.90;;;;;;5017391;28;20049;-74
2022/05/19 10:22:51;;;;;;;0.00;0.00;;;20.60;99.90;;;;;;5018320;28;20054;-73
2022/05/19 10:25:27;;;;;;;0.00;0.00;;;20.50;99.90;;;;;;5017416;28;20042;-74
2022/05/19 10:31:13;;;;;;;0.57;0.43;;;20.10;99.90;;;;;;5017686;28;20049;-75
2022/05/19 10:33:59;;;;;;;0.00;0.00;;;20.10;99.90;;;;;;5018336;28;20046;-76
2022/05/19 10:36:47;;;;;;;0.15;0.15;;;20.30;99.90;;;;;;5018190;28;20358;-76
2022/05/19 10:39:50;;;;;;;0.00;0.00;;;20.30;99.90;;;;;;5017206;28;20053;-76
2022/05/19 10:42:38;;;;;;;0.00;0.00;;;20.30;99.90;;;;;;5018326;28;20368;-75
2022/05/19 10:45:22;;;;;;;0.00;0.00;;;20.20;99.90;;;;;;5016834;28;20042;-73
2022/05/19 10:48:11;;;;;;;0.00;0.00;;;19.90;99.90;;;;;;5017947;28;20041;-72
2022/05/19 10:50:46;;;;;;;0.00;0.00;;;20.00;99.90;;;;;;5018143;28;20339;-73
2022/05/19 10:53:34;;;;;;;0.00;0.00;;;20.30;99.90;;;;;;4999555;28;20062;-76
2022/05/19 10:56:20;;;;;;;;;;;20.10;99.90;;;;;;5018361;28;20048;-74
2022/05/19 10:59:38;;;;;;;0.00;0.00;;;19.70;99.90;;;;;;5016697;28;20349;-74
2022/05/19 11:02:19;;;;;;;0.00;0.00;;;19.60;99.90;;;;;;4957637;29;20466;-75
2022/05/19 11:05:08;;;;;;;0.00;0.00;;;19.80;99.90;;;;;;4956826;29;20422;-74
2022/05/19 11:07:49;;;;;;;;;;;20.20;99.90;;;;;;5006458;28;20464;-72
2022/05/19 11:10:50;;;;;;;0.00;0.00;;;20.00;99.90;;;;;;5017991;28;19921;-73
2022/05/19 11:13:39;;;;;;;0.00;0.00;;;20.00;99.90;;;;;;5017335;28;20373;-73
2022/05/19 11:16:25;;;;;;;0.00;0.00;;;19.70;99.90;;;;;;5016593;28;20050;-75
2022/05/19 11:19:02;;;;;;;0.00;0.00;;;19.70;99.90;;;;;;5016337;28;20050;-72
2022/05/19 11:21:59;;;;;;;0.20;0.20;;;19.60;99.90;;;;;;5016883;28;20049;-73
2022/05/19 11:24:32;;;;;;;0.00;0.00;;;19.40;99.90;;;;;;4996503;28;20303;-72
2022/05/19 11:27:13;;;;;;;0.00;0.00;;;19.40;99.90;;;;;;5017005;28;20049;-71
2022/05/19 11:29:49;;;;;;;0.00;0.00;;;19.40;99.90;;;;;;5016933;28;20042;-71
2022/05/19 11:32:32;;;;;;;0.00;0.00;;;19.50;99.90;;;;;;5015792;28;20042;-76
2022/05/19 11:35:21;;;;;;;0.00;0.00;;;19.50;99.90;;;;;;5016666;28;20049;-72
2022/05/19 11:38:21;;;;;;;0.10;0.10;;;19.40;99.90;;;;;;5014771;28;20045;-73
2022/05/19 11:40:58;;;;;;;0.00;0.00;;;19.20;99.90;;;;;;5016702;28;20038;-69
2022/05/19 11:43:44;;;;;;;0.00;0.00;;;19.10;99.90;;;;;;5016727;28;20049;-73
2022/05/19 11:46:22;;;;;;;0.00;0.00;;;19.20;99.90;;;;;;5015513;28;20343;-74
2022/05/19 11:57:59;;;;;;;0.73;0.73;;;19.50;99.90;;;;;;5015165;28;20066;-73
2022/05/19 12:00:26;;;;;;;0.00;0.00;;;19.40;99.90;;;;;;5016406;28;20050;-75
2022/05/19 12:03:14;;;;;;;0.28;0.28;;;19.40;99.90;;;;;;5016260;28;20381;-74
2022/05/19 12:06:16;;;;;;;0.00;0.00;;;19.10;99.90;;;;;;5015196;28;20449;-72
2022/05/19 12:09:03;;;;;;;0.90;0.65;;;19.20;99.90;;;;;;5015950;28;20057;-72
2022/05/19 12:11:52;;;;;;;0.00;0.00;;;19.40;99.90;;;;;;5015012;28;20457;-73
2022/05/19 12:14:31;;;;;;;0.00;0.00;;;19.60;99.90;;;;;;5016024;28;20060;-74
2022/05/19 12:16:59;;;;;;;0.00;0.00;;;19.50;99.90;;;;;;5016200;28;20042;-73
2022/05/19 12:19:51;;;;;;;0.00;0.00;;;19.60;99.90;;;;;;5014861;28;20054;-73
2022/05/19 12:22:31;;;;;;;0.00;0.00;;;19.60;99.90;;;;;;5015679;28;20038;-72
2022/05/19 12:25:01;;;;;;;0.00;0.00;;;19.70;99.90;;;;;;5014857;28;20468;-72
2022/05/19 12:27:40;;;;;;;0.00;0.00;;;19.70;99.90;;;;;;5015585;28;20050;-72
2022/05/19 12:33:29;;;;;;;0.00;0.00;;;19.40;99.90;;;;;;5015091;28;20120;-73
2022/05/19 12:36:25;;;;;;;0.00;0.00;;;19.40;99.90;;;;;;4998348;28;20389;-75
2022/05/19 12:39:06;;;;;;;0.00;0.00;;;19.30;99.90;;;;;;4989670;28;20373;-75
2022/05/19 12:41:50;;;;;;;0.00;0.00;;;19.40;99.90;;;;;;5015520;28;20050;-74
2022/05/19 12:44:38;;;;;;;0.13;0.13;;;19.50;99.90;;;;;;5014562;28;20141;-73
2022/05/19 12:47:16;;;;;;;0.00;0.00;;;19.60;99.90;;;;;;5015428;28;20042;-74
2022/05/19 12:50:03;;;;;;;0.00;0.00;;;19.80;99.90;;;;;;5015232;28;20050;-75
2022/05/19 12:52:54;;;;;;;2.50;0.80;;;19.70;99.90;;;;;;5014097;28;20049;-74
2022/05/19 12:55:24;;;;;;;2.10;0.63;;;19.80;99.90;;;;;;5015376;28;20057;-74
2022/05/19 12:57:57;;;;;;;0.20;0.20;;;20.00;99.90;;;;;;5014348;28;20317;-77
2022/05/19 13:00:37;;;;;;;0.00;0.00;;;20.10;99.90;;;;;;5015222;28;20060;-75
2022/05/19 13:03:14;;;;;;;0.00;0.00;;;20.10;99.90;;;;;;5015239;28;20046;-72
2022/05/19 13:05:59;;;;;;;1.20;0.55;;;20.30;99.90;;;;;;5013712;28;20060;-74
2022/05/19 13:08:34;;;;;;;0.10;0.10;;;20.30;99.90;;;;;;5015145;28;20049;-73
2022/05/19 13:11:09;;;;;;;0.00;0.00;;;20.50;99.90;;;;;;5014119;28;20042;-70
2022/05/19 13:13:42;;;;;;;0.20;0.20;;;21.20;99.90;;;;;;5015148;28;20046;-71
2022/05/19 13:16:11;;;;;;;0.00;0.00;;;23.00;99.90;;;;;;5015107;28;20411;-73
2022/05/19 13:18:46;;;;;;;0.00;0.00;;;24.70;93.70;;;;;;5013840;28;20049;-74
2022/05/19 13:21:23;;;;;;;0.00;0.00;;;25.70;99.90;;;;;;5014749;28;20511;-73
2022/05/19 13:23:52;;;;;;;0.00;0.00;;;27.10;95.70;;;;;;5014996;28;20046;-74
2022/05/19 13:26:27;;;;;;;0.00;0.00;;;27.80;93.60;;;;;;5013770;28;20052;-79
2022/05/19 13:32:11;;;;;;;0.00;0.00;;;29.10;90.50;;;;;;5013676;28;20042;-74
2022/05/19 13:34:48;;;;;;;0.00;0.00;;;28.80;91.70;;;;;;5014373;28;20049;-75
2022/05/19 13:37:36;;;;;;;0.00;0.00;;;28.90;74.10;;;;;;5014777;28;20052;-73
2022/05/19 13:40:30;;;;;;;;;;;28.90;80.80;;;;;;5014599;28;20052;-75
2022/05/19 13:43:11;;;;;;;0.00;0.00;;;29.50;91.00;;;;;;5014718;28;19922;-75
2022/05/19 13:45:53;;;;;;;0.00;0.00;;;30.00;87.10;;;;;;5013541;28;20050;-73
2022/05/19 13:48:32;;;;;;;0.00;0.00;;;30.40;91.70;;;;;;5014528;28;20042;-76
2022/05/19 13:51:11;;;;;;;0.00;0.00;;;30.50;77.90;;;;;;5013604;28;20049;-71
2022/05/19 13:53:42;;;;;;;0.00;0.00;;;30.20;78.30;;;;;;5014680;28;20046;-76
2022/05/19 13:56:10;;;;;;;0.00;0.00;;;30.30;81.40;;;;;;4997503;28;20045;-75
2022/05/19 13:58:44;;;;;;;0.00;0.00;;;29.50;71.90;;;;;;5013335;28;20061;-72
2022/05/19 14:01:25;;;;;;;1.30;0.70;;;29.40;80.70;;;;;;4997452;28;20057;-73